Fulton County Airport Brown Field
KFTY : now visible

Airfield :











YOU CAN JOIN US ON...

 
LOGIN :

Register | Disclaimer

   EN    FR    IT 

 









Legend :    VFR   Marginal VFR   IFR   Intensive IFR   Very Intensive IFR
Visi :
Ceiling :
>= 8 km
>= 3000ft
5 to 8 km
1000 to 3000 ft
1500m to 5 km
500 to 1000 ft
800 to 1500m
200 to 500 ft
< 800m
< 200 ft
Symbols :   Thunderstorms  Fog  Heavy snow  Heavy precipitations  Wind > 20 kt






- Airport Elevation : 841 ft


KFTY - Fulton County Brown Field

CURRENT METAR :
  • 301653Z VRB05KT 10SM CLR 32/23 A3001 RMK AO2 SLP151 T03170233

EXPIRED METARs :
  • 301553Z 27006KT 10SM CLR 29/24 A3001 RMK AO2 SLP150 T02940239
  • 301453Z 25004KT 9SM CLR 28/23 A3001 RMK AO2 SLP151 T02780233 58017
  • 301353Z 24003KT 9SM 26/23 A3003 RMK AO2 SLP158 T02610228

TAF KFTY
Valid from the 30 at 12:00 until the 31 at 12:00 UTC


301138Z 3012/3112 29004KT P6SM SCT250
FM301500 31006KT P6SM SCT040 BKN200
FM301700 30009KT P6SM VCSH SCT050 SCT150
FM310200 30006KT P6SM SCT150
KZTL FIR / North America



MET'MAP, your aeronautical weather chart ! - Copyright ORBIFLY December 2007 - Disclaimer

ORBIFLY MET'MAP TEAM :

Programming & Development : Alexandra Zaïnal
Concept & original design : Baudouin d'Aumeries
Assistance for programming : Marc-Olivier Méhu
Technical & hardware support : Manuel Goepfert

Contact : metmap@orbifly.com




SOURCES & CREDITS :

   NOAA       Earth
Advisory